createdAt,value
2022-08-17T00:00:34.981Z,12.98
2022-08-17T00:03:11.170Z,12.35
2022-08-17T00:05:51.013Z,12.85
2022-08-17T00:08:23.359Z,12.30
2022-08-17T00:10:51.128Z,12.38
2022-08-17T00:13:25.631Z,11.23
2022-08-17T00:15:55.509Z,10.73
2022-08-17T00:19:01.587Z,12.48
2022-08-17T00:21:10.784Z,11.05
2022-08-17T00:23:38.159Z,13.48
2022-08-17T00:26:04.963Z,10.65
2022-08-17T00:28:33.379Z,12.10
2022-08-17T00:31:00.403Z,10.95
2022-08-17T00:33:30.234Z,11.68
2022-08-17T00:35:58.550Z,9.57
2022-08-17T00:38:26.501Z,15.82
2022-08-17T00:41:02.592Z,16.38
2022-08-17T00:43:32.236Z,17.00
2022-08-17T00:46:00.782Z,10.02
2022-08-17T00:48:30.102Z,11.68
2022-08-17T00:51:31.301Z,14.85
2022-08-17T00:54:14.017Z,17.40
2022-08-17T00:56:59.473Z,12.95
2022-08-17T00:59:33.244Z,14.15
2022-08-17T01:02:01.253Z,15.57
2022-08-17T01:04:29.806Z,12.55
2022-08-17T01:06:58.609Z,12.00
2022-08-17T01:09:25.911Z,11.95
2022-08-17T01:11:52.551Z,12.82
2022-08-17T01:14:22.288Z,16.70
2022-08-17T01:16:51.369Z,11.48
2022-08-17T01:19:24.643Z,12.55
2022-08-17T01:22:06.953Z,14.68
2022-08-17T01:24:35.292Z,14.35
2022-08-17T01:27:02.614Z,13.80
2022-08-17T01:29:39.263Z,11.32
2022-08-17T01:32:07.651Z,11.70
2022-08-17T01:34:42.395Z,13.43
2022-08-17T01:37:11.384Z,13.18
2022-08-17T01:39:43.579Z,12.18
2022-08-17T01:42:31.238Z,11.75
2022-08-17T01:45:07.768Z,10.93
2022-08-17T01:47:36.059Z,12.50
2022-08-17T01:50:16.496Z,16.60
2022-08-17T01:52:49.241Z,14.60
2022-08-17T01:55:23.405Z,13.05
2022-08-17T01:57:52.710Z,12.40
2022-08-17T02:00:19.349Z,18.70
2022-08-17T02:02:46.132Z,13.18
2022-08-17T02:05:13.672Z,14.82
2022-08-17T02:07:59.630Z,14.05
2022-08-17T02:10:33.898Z,16.23
2022-08-17T02:13:02.250Z,13.23
2022-08-17T02:15:29.078Z,15.35
2022-08-17T02:17:55.709Z,12.07
2022-08-17T02:20:42.018Z,16.30
2022-08-17T02:23:11.923Z,15.95
2022-08-17T02:25:43.277Z,17.90
2022-08-17T02:28:10.614Z,13.30
2022-08-17T02:31:02.253Z,16.38
2022-08-17T02:33:24.915Z,14.82
2022-08-17T02:36:09.581Z,15.77
2022-08-17T02:38:37.689Z,15.75
2022-08-17T02:41:04.989Z,15.93
2022-08-17T02:43:32.337Z,15.95
2022-08-17T02:45:58.921Z,15.80
2022-08-17T02:48:30.717Z,17.35
2022-08-17T02:50:58.021Z,15.48
2022-08-17T02:53:24.761Z,16.98
2022-08-17T02:55:52.559Z,19.65
2022-08-17T02:58:34.423Z,18.20
2022-08-17T03:01:01.561Z,16.48
2022-08-17T03:03:28.285Z,15.85
2022-08-17T03:05:54.876Z,16.20
2022-08-17T03:08:23.170Z,13.38
2022-08-17T03:10:51.887Z,12.55
2022-08-17T03:13:18.551Z,13.63
2022-08-17T03:15:46.991Z,16.13
2022-08-17T03:18:24.593Z,14.45
2022-08-17T03:20:56.280Z,13.32
2022-08-17T03:23:25.457Z,14.00
2022-08-17T03:25:53.739Z,17.40
2022-08-17T03:28:22.142Z,20.27
2022-08-17T03:30:49.289Z,15.75
2022-08-17T03:33:16.816Z,12.57
2022-08-17T03:35:43.571Z,14.18
2022-08-17T03:38:12.487Z,14.63
2022-08-17T03:40:57.565Z,13.57
2022-08-17T03:43:30.834Z,17.90
2022-08-17T03:46:28.217Z,16.05
2022-08-17T03:49:19.367Z,20.55
2022-08-17T03:52:04.716Z,17.02
2022-08-17T03:54:50.205Z,17.23
2022-08-17T03:57:16.943Z,17.38
2022-08-17T03:59:45.073Z,15.68
2022-08-17T04:02:18.801Z,15.52
2022-08-17T04:04:45.563Z,16.48
2022-08-17T04:07:12.268Z,20.42
2022-08-17T04:09:38.957Z,21.70
2022-08-17T04:12:05.776Z,20.00
2022-08-17T04:14:52.149Z,24.10
2022-08-17T04:17:28.197Z,17.75
2022-08-17T04:19:56.188Z,19.70
2022-08-17T04:22:31.184Z,17.33
2022-08-17T04:25:16.511Z,22.15
2022-08-17T04:27:43.250Z,25.83
2022-08-17T04:30:10.530Z,18.65
2022-08-17T04:33:07.372Z,22.15
2022-08-17T04:35:50.004Z,21.13
2022-08-17T04:38:24.348Z,21.17
2022-08-17T04:41:10.854Z,22.08
2022-08-17T04:43:39.327Z,19.42
2022-08-17T04:46:10.664Z,21.40
2022-08-17T04:48:40.744Z,17.00
2022-08-17T04:51:09.551Z,17.10
2022-08-17T04:53:36.967Z,17.83
2022-08-17T04:56:04.320Z,18.95
2022-08-17T04:58:30.993Z,17.92
2022-08-17T05:00:57.835Z,23.23
2022-08-17T05:03:24.755Z,18.65
2022-08-17T05:05:51.384Z,20.65
2022-08-17T05:08:20.433Z,21.27
2022-08-17T05:10:48.070Z,27.17
2022-08-17T05:13:18.129Z,23.58
2022-08-17T05:15:47.853Z,29.77
2022-08-17T05:18:15.944Z,24.42
2022-08-17T05:20:42.822Z,27.27
2022-08-17T05:23:16.333Z,24.75
2022-08-17T05:25:47.449Z,23.88
2022-08-17T05:28:16.748Z,25.75
2022-08-17T05:30:45.740Z,26.70
2022-08-17T05:33:19.264Z,26.40
2022-08-17T05:35:48.474Z,24.33
2022-08-17T05:38:17.093Z,27.45
2022-08-17T05:40:44.582Z,27.30
2022-08-17T05:43:27.028Z,28.70
2022-08-17T05:46:15.365Z,30.60
2022-08-17T05:48:45.233Z,30.38
2022-08-17T05:51:14.516Z,26.52
2022-08-17T05:54:00.556Z,32.10
2022-08-17T05:56:58.908Z,25.92
2022-08-17T05:59:50.485Z,27.65
2022-08-17T06:02:26.297Z,25.63
2022-08-17T06:05:17.065Z,31.50
2022-08-17T06:07:46.625Z,27.52
2022-08-17T06:10:23.548Z,27.85
2022-08-17T06:13:03.229Z,37.42
2022-08-17T06:15:39.796Z,27.42
2022-08-17T06:18:09.466Z,31.27
2022-08-17T06:21:09.809Z,26.63
2022-08-17T06:24:10.431Z,29.10
2022-08-17T06:26:43.202Z,31.60
2022-08-17T06:29:18.595Z,30.75
2022-08-17T06:31:46.029Z,26.65
2022-08-17T06:34:12.967Z,29.05
2022-08-17T06:36:58.027Z,26.88
2022-08-17T06:39:28.529Z,31.92
2022-08-17T06:43:00.874Z,31.55
2022-08-17T06:45:37.509Z,26.15
2022-08-17T06:48:25.346Z,28.52
2022-08-17T06:51:00.661Z,24.98
2022-08-17T06:53:35.393Z,25.95
2022-08-17T06:56:09.888Z,26.42
2022-08-17T06:58:38.814Z,27.80
2022-08-17T07:01:20.910Z,29.73
2022-08-17T07:04:12.103Z,24.52
2022-08-17T07:06:56.884Z,25.42
2022-08-17T07:09:33.954Z,24.25
2022-08-17T07:12:22.164Z,23.67
2022-08-17T07:14:59.539Z,20.75
2022-08-17T07:17:47.307Z,23.17
2022-08-17T07:20:22.508Z,23.35
2022-08-17T07:23:00.450Z,25.05
2022-08-17T07:25:28.476Z,22.50
2022-08-17T07:28:00.165Z,19.83
2022-08-17T07:30:56.082Z,22.65
2022-08-17T07:33:26.451Z,20.08
2022-08-17T07:35:53.963Z,20.55
2022-08-17T07:44:15.264Z,18.25
2022-08-17T07:47:10.820Z,16.00
2022-08-17T07:49:41.776Z,16.20
2022-08-17T07:52:47.613Z,15.85
2022-08-17T07:54:58.098Z,18.10
2022-08-17T07:57:33.740Z,16.35
2022-08-17T08:00:01.284Z,15.85
2022-08-17T08:02:38.582Z,13.82
2022-08-17T08:05:13.330Z,12.23
2022-08-17T08:07:51.973Z,12.43
2022-08-17T08:10:42.813Z,14.68
2022-08-17T08:13:32.378Z,11.20
2022-08-17T08:16:13.681Z,12.85
2022-08-17T08:18:54.348Z,16.13
2022-08-17T08:21:29.022Z,12.63
2022-08-17T08:24:12.182Z,12.30
2022-08-17T08:27:00.449Z,10.55
2022-08-17T08:30:04.875Z,12.25
2022-08-17T08:32:50.373Z,10.57
2022-08-17T08:35:30.796Z,16.05
2022-08-17T08:38:03.341Z,14.13
2022-08-17T08:41:13.430Z,9.80
2022-08-17T08:43:55.142Z,10.07
2022-08-17T08:46:50.259Z,8.48
2022-08-17T08:50:03.797Z,9.30
2022-08-17T08:52:56.906Z,9.23
2022-08-17T08:55:56.122Z,9.85
2022-08-17T08:58:50.570Z,8.90
2022-08-17T09:01:35.355Z,7.30
2022-08-17T09:05:02.673Z,11.65
2022-08-17T09:07:36.169Z,10.35
2022-08-17T09:10:22.280Z,8.15
2022-08-17T09:13:15.058Z,9.38
2022-08-17T09:15:49.585Z,19.48
2022-08-17T09:19:00.481Z,7.97
2022-08-17T09:21:35.903Z,10.90
2022-08-17T09:24:26.358Z,8.20
2022-08-17T09:27:02.741Z,7.75
2022-08-17T09:29:36.481Z,7.05
2022-08-17T09:32:14.842Z,8.75
2022-08-17T09:34:50.869Z,8.85
2022-08-17T09:37:33.521Z,9.80
2022-08-17T09:40:08.939Z,8.75
2022-08-17T09:42:50.127Z,9.85
2022-08-17T09:45:39.060Z,8.48
2022-08-17T09:48:08.593Z,9.50
2022-08-17T09:51:07.761Z,8.35
2022-08-17T09:53:38.666Z,7.00
2022-08-17T09:56:46.339Z,7.63
2022-08-17T09:59:45.441Z,9.75
2022-08-17T10:02:53.418Z,9.23
2022-08-17T10:05:46.249Z,8.27
2022-08-17T10:08:22.907Z,7.55
2022-08-17T10:11:08.937Z,8.05
2022-08-17T10:13:59.478Z,7.13
2022-08-17T10:16:59.220Z,7.75
2022-08-17T10:19:39.346Z,8.93
2022-08-17T10:22:39.209Z,9.50
2022-08-17T10:25:42.636Z,7.93
2022-08-17T10:28:22.817Z,8.85
2022-08-17T10:31:10.723Z,7.38
2022-08-17T10:34:17.247Z,8.15
2022-08-17T10:37:04.595Z,8.13
2022-08-17T10:39:52.043Z,10.02
2022-08-17T10:42:33.676Z,10.07
2022-08-17T10:45:30.944Z,9.75
2022-08-17T10:48:06.250Z,14.45
2022-08-17T10:51:07.531Z,8.77
2022-08-17T10:53:40.596Z,8.43
2022-08-17T10:56:18.654Z,8.80
2022-08-17T10:59:01.275Z,7.00
2022-08-17T11:01:34.442Z,8.75
2022-08-17T11:04:21.285Z,8.23
2022-08-17T11:07:06.509Z,8.95
2022-08-17T11:10:03.100Z,8.00
2022-08-17T11:13:07.236Z,8.27
2022-08-17T11:16:08.851Z,9.18
2022-08-17T11:18:48.537Z,7.72
2022-08-17T11:21:41.651Z,8.20
2022-08-17T11:24:17.506Z,8.13
2022-08-17T11:27:00.788Z,7.15
2022-08-17T11:29:38.913Z,9.55
2022-08-17T11:32:14.952Z,6.15
2022-08-17T11:34:44.467Z,7.15
2022-08-17T11:37:36.195Z,7.80
2022-08-17T11:40:27.802Z,7.03
2022-08-17T11:43:25.352Z,11.10
2022-08-17T11:47:10.301Z,7.90
2022-08-17T11:50:11.745Z,8.25
2022-08-17T11:52:38.449Z,7.07
2022-08-17T11:55:33.536Z,9.25
2022-08-17T11:58:00.883Z,9.32
2022-08-17T12:00:49.743Z,6.93
2022-08-17T12:03:54.492Z,7.32
2022-08-17T12:06:54.784Z,6.88
2022-08-17T12:09:24.964Z,8.60
2022-08-17T12:12:12.481Z,6.32
2022-08-17T12:15:08.932Z,10.38
2022-08-17T12:17:41.471Z,8.18
2022-08-17T12:20:33.241Z,7.43
2022-08-17T12:23:13.769Z,7.25
2022-08-17T12:25:56.633Z,7.45
2022-08-17T12:28:28.987Z,6.18
2022-08-17T12:31:02.423Z,7.57
2022-08-17T12:33:29.475Z,5.88
2022-08-17T12:36:04.099Z,10.13
2022-08-17T12:38:34.419Z,5.43
2022-08-17T12:41:22.441Z,5.38
2022-08-17T12:44:15.524Z,6.65
2022-08-17T12:47:04.563Z,7.47
2022-08-17T12:49:37.414Z,10.35
2022-08-17T12:52:20.253Z,6.53
2022-08-17T12:54:49.532Z,6.28
2022-08-17T12:57:21.132Z,6.35
2022-08-17T12:59:53.072Z,6.32
2022-08-17T13:02:48.168Z,6.85
2022-08-17T13:05:22.470Z,6.82
2022-08-17T13:07:49.510Z,9.35
2022-08-17T13:10:32.709Z,11.15
2022-08-17T13:13:04.807Z,6.30
2022-08-17T13:15:44.640Z,7.72
2022-08-17T13:18:36.121Z,7.50
2022-08-17T13:21:03.011Z,7.05
2022-08-17T13:23:32.302Z,7.97
2022-08-17T13:26:05.393Z,7.15
2022-08-17T13:28:36.061Z,6.18
2022-08-17T13:31:28.038Z,7.20
2022-08-17T13:34:16.549Z,8.20
2022-08-17T13:36:46.669Z,6.57
2022-08-17T13:39:20.089Z,5.65
2022-08-17T13:41:48.561Z,6.28
2022-08-17T13:44:37.576Z,11.57
2022-08-17T13:47:15.807Z,8.50
2022-08-17T13:49:48.861Z,6.00
2022-08-17T13:52:38.810Z,6.70
2022-08-17T13:55:26.285Z,7.63
2022-08-17T13:58:03.589Z,7.53
2022-08-17T14:00:36.446Z,7.35
2022-08-17T14:03:04.942Z,7.10
2022-08-17T14:05:32.385Z,9.07
2022-08-17T14:08:02.148Z,6.70
2022-08-17T14:10:35.745Z,6.95
2022-08-17T14:13:02.617Z,7.97
2022-08-17T14:15:55.400Z,6.78
2022-08-17T14:18:17.945Z,5.97
2022-08-17T14:21:02.381Z,7.05
2022-08-17T14:23:35.145Z,7.80
2022-08-17T14:26:02.014Z,6.25
2022-08-17T14:28:28.653Z,9.73
2022-08-17T14:30:55.478Z,7.63
2022-08-17T14:33:24.593Z,12.52
2022-08-17T14:35:53.405Z,9.15
2022-08-17T14:38:20.976Z,8.48
2022-08-17T14:40:49.072Z,6.53
2022-08-17T14:43:15.867Z,8.50
2022-08-17T14:45:43.058Z,9.82
2022-08-17T14:48:10.236Z,7.53
2022-08-17T14:50:42.856Z,8.10
2022-08-17T14:53:11.617Z,7.85
2022-08-17T14:55:40.615Z,8.05
2022-08-17T14:58:08.644Z,7.30
2022-08-17T15:00:35.821Z,6.90
2022-08-17T15:03:02.589Z,8.80
2022-08-17T15:05:33.386Z,7.63
2022-08-17T15:08:01.135Z,7.18
2022-08-17T15:10:29.203Z,7.47
2022-08-17T15:12:56.164Z,11.02
2022-08-17T15:15:23.195Z,7.40
2022-08-17T15:17:51.540Z,10.75
2022-08-17T15:20:21.406Z,7.90
2022-08-17T15:22:55.567Z,8.75
2022-08-17T15:25:24.016Z,11.00
2022-08-17T15:27:51.301Z,10.02
2022-08-17T15:30:18.597Z,14.27
2022-08-17T15:32:45.756Z,9.98
2022-08-17T15:35:18.703Z,6.97
2022-08-17T15:37:46.874Z,8.30
2022-08-17T15:40:13.625Z,10.15
2022-08-17T15:42:40.924Z,7.72
2022-08-17T15:45:13.218Z,9.23
2022-08-17T15:47:40.601Z,7.95
2022-08-17T15:50:08.652Z,8.00
2022-08-17T15:52:40.497Z,9.30
2022-08-17T15:55:10.945Z,8.65
2022-08-17T15:57:37.577Z,8.05
2022-08-17T16:00:07.470Z,9.43
2022-08-17T16:03:45.351Z,8.93
2022-08-17T16:05:25.180Z,9.43
2022-08-17T16:07:53.227Z,8.38
2022-08-17T16:10:20.933Z,8.48
2022-08-17T16:12:48.916Z,7.75
2022-08-17T16:15:16.914Z,8.18
2022-08-17T16:17:43.493Z,9.23
2022-08-17T16:20:19.895Z,8.68
2022-08-17T16:22:48.692Z,8.75
2022-08-17T16:25:20.116Z,10.48
2022-08-17T16:27:49.283Z,9.25
2022-08-17T16:30:17.561Z,10.88
2022-08-17T16:32:44.797Z,11.30
2022-08-17T16:35:17.293Z,10.10
2022-08-17T16:37:45.680Z,8.95
2022-08-17T16:40:16.118Z,7.07
2022-08-17T16:42:43.245Z,9.27
2022-08-17T16:45:15.275Z,8.13
2022-08-17T16:47:42.244Z,10.63
2022-08-17T16:50:11.626Z,11.30
2022-08-17T16:52:39.164Z,7.03
2022-08-17T16:55:08.484Z,9.23
2022-08-17T16:57:37.285Z,7.57
2022-08-17T17:00:16.412Z,6.03
2022-08-17T17:02:47.087Z,7.35
2022-08-17T17:05:32.718Z,11.55
2022-08-17T17:08:20.428Z,9.25
2022-08-17T17:10:49.993Z,12.82
2022-08-17T17:13:40.330Z,9.35
2022-08-17T17:16:18.900Z,8.05
2022-08-17T17:19:14.179Z,8.10
2022-08-17T17:21:48.041Z,9.75
2022-08-17T17:24:23.378Z,8.27
2022-08-17T17:27:19.176Z,8.10
2022-08-17T17:30:01.230Z,7.05
2022-08-17T17:32:38.012Z,9.68
2022-08-17T17:35:11.095Z,10.85
2022-08-17T17:37:39.644Z,10.18
2022-08-17T17:40:37.101Z,12.43
2022-08-17T17:43:34.946Z,12.73
2022-08-17T17:46:26.513Z,9.38
2022-08-17T17:48:50.162Z,11.60
2022-08-17T17:52:07.809Z,9.13
2022-08-17T17:55:00.480Z,8.57
2022-08-17T17:57:51.134Z,15.65
2022-08-17T18:00:23.491Z,10.65
2022-08-17T18:03:27.417Z,11.05
2022-08-17T18:06:04.702Z,8.43
2022-08-17T18:09:11.632Z,8.73
2022-08-17T18:12:04.568Z,10.52
2022-08-17T18:14:52.850Z,11.90
2022-08-17T18:17:20.256Z,7.63
2022-08-17T18:19:47.185Z,10.95
2022-08-17T18:22:20.108Z,12.55
2022-08-17T18:24:53.963Z,10.05
2022-08-17T18:27:23.362Z,12.30
2022-08-17T18:29:53.317Z,8.15
2022-08-17T18:32:24.906Z,9.77
2022-08-17T18:34:59.563Z,8.70
2022-08-17T18:37:33.101Z,8.68
2022-08-17T18:40:16.466Z,8.77
2022-08-17T18:42:45.694Z,8.48
2022-08-17T18:45:13.487Z,8.48
2022-08-17T18:47:55.213Z,8.73
2022-08-17T18:50:35.287Z,7.55
2022-08-17T18:53:37.912Z,8.80
2022-08-17T18:56:19.892Z,8.85
2022-08-17T18:59:09.904Z,9.00
2022-08-17T19:01:59.865Z,5.35
2022-08-17T19:04:32.785Z,6.70
2022-08-17T19:07:22.024Z,3.70
2022-08-17T19:09:53.416Z,2.90
2022-08-17T19:12:48.708Z,7.68
2022-08-17T19:15:21.367Z,3.67
2022-08-17T19:17:57.289Z,4.20
2022-08-17T19:20:34.403Z,5.28
2022-08-17T19:23:28.984Z,4.95
2022-08-17T19:25:59.166Z,4.80
2022-08-17T19:28:44.177Z,4.32
2022-08-17T19:31:23.957Z,4.18
2022-08-17T19:33:50.895Z,4.45
2022-08-17T19:36:21.461Z,6.70
2022-08-17T19:39:00.774Z,6.50
2022-08-17T19:41:44.349Z,6.10
2022-08-17T19:44:39.249Z,7.68
2022-08-17T19:48:04.987Z,7.07
2022-08-17T19:50:23.460Z,8.65
2022-08-17T19:53:09.515Z,8.70
2022-08-17T19:55:56.096Z,9.65
2022-08-17T19:58:51.719Z,7.88
2022-08-17T20:01:41.116Z,11.73
2022-08-17T20:04:32.393Z,8.63
2022-08-17T20:07:24.228Z,9.20
2022-08-17T20:09:58.156Z,9.02
2022-08-17T20:12:30.432Z,10.20
2022-08-17T20:15:23.877Z,8.30
2022-08-17T20:17:50.961Z,8.70
2022-08-17T20:20:26.763Z,8.63
2022-08-17T20:23:11.337Z,9.15
2022-08-17T20:26:19.768Z,13.48
2022-08-17T20:29:05.143Z,8.73
2022-08-17T20:31:49.361Z,8.93
2022-08-17T20:34:37.483Z,9.40
2022-08-17T20:37:27.773Z,9.80
2022-08-17T20:39:57.402Z,8.85
2022-08-17T20:42:23.989Z,10.15
2022-08-17T20:45:26.938Z,11.73
2022-08-17T20:48:26.073Z,8.60
2022-08-17T20:50:51.693Z,8.85
2022-08-17T20:53:46.249Z,10.27
2022-08-17T20:56:44.930Z,11.65
2022-08-17T20:59:20.609Z,11.18
2022-08-17T21:02:03.720Z,9.40
2022-08-17T21:04:54.726Z,9.38
2022-08-17T21:07:42.822Z,8.90
2022-08-17T21:10:21.336Z,9.93
2022-08-17T21:13:13.363Z,11.88
2022-08-17T21:15:58.929Z,8.32
2022-08-17T21:18:53.816Z,10.55
2022-08-17T21:21:50.825Z,9.50
2022-08-17T21:24:35.572Z,10.75
2022-08-17T21:27:20.280Z,9.27
2022-08-17T21:30:01.845Z,9.45
2022-08-17T21:32:40.410Z,7.45
2022-08-17T21:35:12.061Z,7.75
2022-08-17T21:37:48.167Z,7.35
2022-08-17T21:40:18.286Z,9.00
2022-08-17T21:42:51.317Z,7.68
2022-08-17T21:45:31.638Z,10.63
2022-08-17T21:48:19.491Z,6.63
2022-08-17T21:50:59.033Z,7.90
2022-08-17T21:53:33.888Z,8.88
2022-08-17T21:56:00.838Z,8.77
2022-08-17T21:58:31.868Z,6.68
2022-08-17T22:01:20.922Z,7.22
2022-08-17T22:04:16.997Z,9.48
2022-08-17T22:06:52.409Z,14.35
2022-08-17T22:09:29.501Z,8.20
2022-08-17T22:12:15.948Z,7.20
2022-08-17T22:14:52.754Z,7.55
2022-08-17T22:17:36.800Z,9.38
2022-08-17T22:20:07.854Z,8.98
2022-08-17T22:23:17.981Z,8.75
2022-08-17T22:26:01.437Z,8.82
2022-08-17T22:28:39.583Z,5.68
2022-08-17T22:31:08.913Z,11.43
2022-08-17T22:33:41.074Z,9.00
2022-08-17T22:36:13.751Z,8.15
2022-08-17T22:38:43.583Z,6.55
2022-08-17T22:41:31.669Z,6.65
2022-08-17T22:44:07.976Z,8.10
2022-08-17T22:46:40.105Z,9.10
2022-08-17T22:49:07.419Z,10.00
2022-08-17T22:51:34.078Z,5.20
2022-08-17T22:54:34.096Z,8.75
2022-08-17T22:57:22.629Z,8.60
2022-08-17T22:59:52.741Z,5.80
2022-08-17T23:02:22.367Z,5.80
2022-08-17T23:04:53.056Z,5.80
2022-08-17T23:07:21.194Z,6.43
2022-08-17T23:09:48.036Z,6.28
2022-08-17T23:12:18.369Z,5.75
2022-08-17T23:14:51.249Z,8.02
2022-08-17T23:17:18.023Z,5.55
2022-08-17T23:19:44.986Z,5.68
2022-08-17T23:22:12.124Z,7.80
2022-08-17T23:24:43.999Z,7.75
2022-08-17T23:27:11.473Z,4.68
2022-08-17T23:29:41.443Z,8.05
2022-08-17T23:32:11.097Z,6.30
2022-08-17T23:34:39.713Z,4.65
2022-08-17T23:37:07.564Z,6.25
2022-08-17T23:39:34.964Z,5.32
2022-08-17T23:42:07.963Z,5.63
2022-08-17T23:44:36.940Z,4.30
2022-08-17T23:47:04.791Z,6.18
2022-08-17T23:49:32.263Z,4.15
2022-08-17T23:52:01.420Z,4.95
2022-08-17T23:54:33.417Z,4.38
2022-08-17T23:57:04.318Z,8.35
2022-08-17T23:59:31.620Z,5.00
